Time;durP1;ratioP1;P1;durP2;ratioP2;P2;SDS_P1;SDS_P2;PMS_P1;PMS_P2;Temp;Humidity;BMP_temperature;BMP_pressure;BME280_temperature;BME280_humidity;BME280_pressure;Samples;Min_cycle;Max_cycle;Signal;HPM_P1;HPM_P2
2022/01/10 00:00:39;;;;;;;4.75;4.75;;;0.90;99.90;;;;;;4160247;28;20041;-48
2022/01/10 00:02:43;;;;;;;4.00;4.00;;;0.90;99.90;;;;;;4158390;28;20044;-51
2022/01/10 00:04:45;;;;;;;4.30;4.30;;;0.90;99.90;;;;;;4159296;28;20044;-50
2022/01/10 00:06:48;;;;;;;5.10;5.10;;;0.90;99.90;;;;;;4159199;28;20048;-50
2022/01/10 00:08:50;;;;;;;5.03;5.03;;;1.00;99.90;;;;;;4159323;28;20454;-49
2022/01/10 00:10:52;;;;;;;5.53;5.53;;;1.10;99.90;;;;;;4159134;28;20080;-47
2022/01/10 00:12:54;;;;;;;4.03;3.97;;;1.10;99.90;;;;;;4157585;28;20500;-48
2022/01/10 00:14:56;;;;;;;5.05;5.05;;;1.10;99.90;;;;;;4158769;28;20088;-47
2022/01/10 00:16:58;;;;;;;4.95;4.95;;;1.10;99.90;;;;;;4160125;28;20497;-49
2022/01/10 00:19:00;;;;;;;3.80;3.80;;;1.10;99.90;;;;;;4156149;28;20081;-47
2022/01/10 00:21:03;;;;;;;5.30;5.30;;;1.00;99.90;;;;;;4159686;28;20042;-47
2022/01/10 00:23:05;;;;;;;4.50;4.50;;;1.20;99.90;;;;;;4157170;28;20108;-50
2022/01/10 00:25:07;;;;;;;5.70;5.70;;;1.20;99.90;;;;;;4158721;28;20041;-51
2022/01/10 00:27:09;;;;;;;5.90;5.90;;;1.20;99.90;;;;;;4157163;28;20153;-51
2022/01/10 00:29:11;;;;;;;6.68;6.68;;;1.30;99.90;;;;;;4159134;28;20563;-51
2022/01/10 00:31:13;;;;;;;8.95;8.90;;;1.30;99.90;;;;;;4158666;28;20397;-49
2022/01/10 00:33:15;;;;;;;10.55;10.45;;;1.30;99.90;;;;;;4159365;28;20049;-48
2022/01/10 00:35:18;;;;;;;9.00;8.95;;;1.30;99.90;;;;;;4157066;28;20076;-51
2022/01/10 00:37:20;;;;;;;7.15;7.15;;;1.20;99.90;;;;;;4160593;28;20449;-51
2022/01/10 00:39:22;;;;;;;7.03;6.93;;;1.20;99.90;;;;;;4157541;28;20482;-51
2022/01/10 00:41:24;;;;;;;6.95;6.95;;;1.20;99.90;;;;;;4159315;28;20045;-49
2022/01/10 00:43:36;;;;;;;5.28;5.28;;;1.10;99.90;;;;;;4157196;28;20077;-50
2022/01/10 00:45:38;;;;;;;7.07;6.97;;;1.00;99.90;;;;;;4160486;28;20499;-51
2022/01/10 00:47:40;;;;;;;7.35;7.25;;;1.00;99.90;;;;;;4157364;28;20032;-51
2022/01/10 00:49:43;;;;;;;;;;;0.90;99.90;;;;;;4158992;28;20046;-49
2022/01/10 00:51:45;;;;;;;6.72;6.63;;;1.10;99.90;;;;;;4157909;28;19964;-51
2022/01/10 00:53:50;;;;;;;6.95;6.85;;;1.10;99.90;;;;;;4153333;28;20134;-51
2022/01/10 00:55:52;;;;;;;5.63;5.63;;;1.20;99.90;;;;;;4157133;28;20030;-51
2022/01/10 00:57:55;;;;;;;;;;;1.30;99.90;;;;;;4161242;28;20061;-51
2022/01/10 00:59:59;;;;;;;6.05;6.05;;;1.40;99.90;;;;;;4159161;28;19925;-50
2022/01/10 01:02:01;;;;;;;5.32;5.32;;;1.50;99.90;;;;;;4160610;28;20067;-48
2022/01/10 01:04:04;;;;;;;5.22;5.22;;;1.40;99.90;;;;;;4160450;28;20068;-49
2022/01/10 01:06:06;;;;;;;6.93;6.93;;;1.50;99.90;;;;;;4164370;28;20037;-51
2022/01/10 01:08:10;;;;;;;5.68;5.68;;;1.50;99.90;;;;;;4158773;28;20048;-50
2022/01/10 01:12:42;;;;;;;5.28;5.28;;;1.30;99.90;;;;;;4158911;28;20424;-50
2022/01/10 01:17:08;;;;;;;6.10;6.10;;;1.10;99.90;;;;;;4161651;28;20041;-50
2022/01/10 01:26:03;;;;;;;6.50;6.40;;;0.60;99.90;;;;;;4160741;28;20096;-51
2022/01/10 01:28:05;;;;;;;5.50;5.40;;;0.60;99.90;;;;;;4160457;28;20736;-51
2022/01/10 01:30:09;;;;;;;5.95;5.85;;;0.50;99.90;;;;;;4163506;28;20533;-51
2022/01/10 01:32:11;;;;;;;4.70;4.70;;;0.50;99.90;;;;;;4160183;28;20030;-48
2022/01/10 01:34:15;;;;;;;4.65;4.65;;;0.70;99.90;;;;;;4160885;28;20132;-51
2022/01/10 01:36:22;;;;;;;4.03;4.03;;;0.80;99.90;;;;;;4159226;28;20455;-47
2022/01/10 01:38:24;;;;;;;5.55;5.55;;;0.90;99.90;;;;;;4161201;28;20128;-51
2022/01/10 01:40:32;;;;;;;5.78;5.78;;;1.20;99.90;;;;;;4159495;28;20405;-51
2022/01/10 01:44:36;;;;;;;6.50;6.50;;;1.30;99.90;;;;;;4160379;28;20120;-52
2022/01/10 01:46:38;;;;;;;6.15;6.15;;;1.40;99.90;;;;;;4162475;28;20045;-50
2022/01/10 01:48:41;;;;;;;6.97;6.88;;;1.30;99.90;;;;;;4159739;28;20556;-51
2022/01/10 01:50:43;;;;;;;7.63;7.53;;;1.10;99.90;;;;;;4162563;28;20064;-52
2022/01/10 01:52:45;;;;;;;7.57;7.47;;;0.90;99.90;;;;;;4159807;28;20038;-51
2022/01/10 01:54:47;;;;;;;10.70;10.30;;;0.80;99.90;;;;;;4162440;28;20064;-50
2022/01/10 01:56:51;;;;;;;14.80;14.50;;;0.90;99.90;;;;;;4161022;28;20132;-51
2022/01/10 01:58:55;;;;;;;12.27;12.18;;;0.80;99.90;;;;;;4161103;28;20509;-52
2022/01/10 02:00:58;;;;;;;11.40;11.30;;;0.80;99.90;;;;;;4159064;28;20037;-46
2022/01/10 02:03:00;;;;;;;10.43;10.13;;;0.80;99.90;;;;;;4161557;28;20033;-46
2022/01/10 02:05:02;;;;;;;10.52;10.43;;;0.80;99.90;;;;;;4159038;28;20056;-45
2022/01/10 02:07:04;;;;;;;12.80;12.70;;;1.00;99.90;;;;;;4161825;28;20159;-46
2022/01/10 02:09:07;;;;;;;13.48;13.38;;;1.00;99.90;;;;;;4158589;28;20557;-46
2022/01/10 02:11:12;;;;;;;14.00;13.90;;;1.00;99.90;;;;;;4162079;28;20524;-47
2022/01/10 02:13:14;;;;;;;15.10;14.90;;;0.70;99.90;;;;;;4157961;28;20044;-46
2022/01/10 02:15:34;;;;;;;10.85;10.75;;;0.60;99.90;;;;;;4162313;28;20076;-46
2022/01/10 02:17:44;;;;;;;7.80;7.72;;;0.90;99.90;;;;;;4159475;28;20060;-46
2022/01/10 02:19:57;;;;;;;5.50;5.50;;;1.00;99.90;;;;;;4159761;28;20041;-47
2022/01/10 02:21:59;;;;;;;6.22;6.22;;;0.90;99.90;;;;;;4160044;28;20045;-45
2022/01/10 02:24:03;;;;;;;5.60;5.60;;;0.90;99.90;;;;;;4160103;28;20037;-45
2022/01/10 02:26:05;;;;;;;5.40;5.40;;;0.90;99.90;;;;;;4162288;28;20069;-46
2022/01/10 02:28:07;;;;;;;4.90;4.90;;;0.90;99.90;;;;;;4159944;28;20034;-46
2022/01/10 02:30:09;;;;;;;5.85;5.85;;;0.90;99.90;;;;;;4161250;28;20273;-46
2022/01/10 02:32:11;;;;;;;3.92;3.92;;;0.90;99.90;;;;;;4160069;28;20076;-47
2022/01/10 02:34:19;;;;;;;5.93;5.93;;;0.90;99.90;;;;;;4161873;28;20464;-50
2022/01/10 02:38:23;;;;;;;8.18;7.97;;;1.00;99.90;;;;;;4162257;28;20045;-46
2022/01/10 02:40:28;;;;;;;8.82;8.73;;;1.00;99.90;;;;;;4160959;28;20475;-47
2022/01/10 02:42:30;;;;;;;6.90;6.90;;;1.10;99.90;;;;;;4161814;28;20501;-46
2022/01/10 02:44:32;;;;;;;6.80;6.40;;;1.10;99.90;;;;;;4159844;28;20120;-46
2022/01/10 02:46:36;;;;;;;7.97;7.88;;;1.10;99.90;;;;;;4161378;28;20481;-47
2022/01/10 02:48:39;;;;;;;8.32;8.23;;;1.30;99.90;;;;;;4150053;28;20052;-46
2022/01/10 02:50:42;;;;;;;6.70;6.70;;;1.30;99.90;;;;;;4162385;28;20029;-46
2022/01/10 02:52:44;;;;;;;6.07;6.07;;;1.40;99.90;;;;;;4158262;28;20129;-46
2022/01/10 02:54:46;;;;;;;6.05;6.05;;;1.40;99.90;;;;;;4160276;28;20087;-47
2022/01/10 02:56:51;;;;;;;6.30;6.20;;;1.30;99.90;;;;;;4158377;28;20069;-46
2022/01/10 02:58:53;;;;;;;6.22;6.22;;;1.30;99.90;;;;;;4162149;28;20120;-47
2022/01/10 03:00:55;;;;;;;7.57;7.57;;;1.40;99.90;;;;;;4157175;28;20038;-46
2022/01/10 03:02:59;;;;;;;6.68;6.68;;;1.40;99.90;;;;;;4161384;28;20232;-48
2022/01/10 03:05:02;;;;;;;5.32;5.22;;;1.50;99.90;;;;;;4156716;28;20824;-45
2022/01/10 03:07:05;;;;;;;5.82;5.82;;;1.60;99.90;;;;;;4161130;28;20458;-46
2022/01/10 03:09:08;;;;;;;;;;;1.50;99.90;;;;;;4158407;28;20063;-47
2022/01/10 03:11:10;;;;;;;5.80;5.80;;;1.50;99.90;;;;;;4161790;28;20048;-46
2022/01/10 03:13:12;;;;;;;5.75;5.65;;;1.40;99.90;;;;;;4158119;28;20133;-45
2022/01/10 03:15:14;;;;;;;4.88;4.85;;;1.30;99.90;;;;;;4161223;28;20541;-45
2022/01/10 03:17:16;;;;;;;6.68;6.65;;;1.30;99.90;;;;;;4158250;28;20693;-45
2022/01/10 03:19:18;;;;;;;6.00;6.00;;;1.30;99.90;;;;;;4159298;28;20132;-46
2022/01/10 03:21:20;;;;;;;5.32;5.22;;;1.30;99.90;;;;;;4157318;28;20083;-46
2022/01/10 03:23:22;;;;;;;5.68;5.57;;;1.40;99.90;;;;;;4160694;28;20989;-46
2022/01/10 03:25:25;;;;;;;5.05;5.05;;;1.40;99.90;;;;;;4157722;28;20049;-47
2022/01/10 03:27:27;;;;;;;5.38;5.38;;;1.30;99.90;;;;;;4161840;28;20041;-45
2022/01/10 03:29:29;;;;;;;6.38;6.38;;;1.30;99.90;;;;;;4158944;28;20037;-48
2022/01/10 03:31:31;;;;;;;4.82;4.63;;;1.30;99.90;;;;;;4160937;28;20493;-45
2022/01/10 03:33:33;;;;;;;5.40;5.40;;;1.30;99.90;;;;;;4158204;28;20067;-47
2022/01/10 03:35:36;;;;;;;5.72;5.63;;;1.30;99.90;;;;;;4161164;28;20037;-46
2022/01/10 03:37:38;;;;;;;6.30;6.20;;;1.30;99.90;;;;;;4159601;28;20095;-44
2022/01/10 03:39:40;;;;;;;5.22;5.13;;;1.40;99.90;;;;;;4159949;28;20069;-45
2022/01/10 03:41:42;;;;;;;4.78;4.78;;;1.40;99.90;;;;;;4157355;28;20065;-46
2022/01/10 03:43:44;;;;;;;5.28;5.28;;;1.40;99.90;;;;;;4160750;28;20049;-45
2022/01/10 03:45:47;;;;;;;5.95;5.85;;;1.50;99.90;;;;;;4159509;28;20382;-45
2022/01/10 03:47:49;;;;;;;6.75;6.55;;;1.50;99.90;;;;;;4160747;28;20127;-45
2022/01/10 03:49:51;;;;;;;6.57;6.47;;;1.40;99.90;;;;;;4159290;28;20057;-47
2022/01/10 03:51:53;;;;;;;5.53;5.43;;;1.50;99.90;;;;;;4160994;28;20654;-45
2022/01/10 03:53:55;;;;;;;4.88;4.88;;;1.40;99.90;;;;;;4159028;28;20139;-46
2022/01/10 03:55:57;;;;;;;5.55;5.53;;;1.30;99.90;;;;;;4160905;28;20041;-45
2022/01/10 03:57:59;;;;;;;5.90;5.90;;;1.30;99.90;;;;;;4158700;28;20104;-45
2022/01/10 04:00:04;;;;;;;5.13;5.03;;;1.30;99.90;;;;;;4160375;28;20044;-45
2022/01/10 04:02:06;;;;;;;5.95;5.78;;;1.30;99.90;;;;;;4141891;28;20141;-46
2022/01/10 04:04:08;;;;;;;6.00;6.00;;;1.30;99.90;;;;;;4151629;28;20049;-45
2022/01/10 04:06:11;;;;;;;5.40;5.40;;;1.40;99.90;;;;;;4157461;28;20049;-46
2022/01/10 04:08:13;;;;;;;4.78;4.75;;;1.40;99.90;;;;;;4160100;28;20468;-45
2022/01/10 04:10:15;;;;;;;4.35;4.28;;;1.30;99.90;;;;;;4157186;28;20139;-45
2022/01/10 04:12:18;;;;;;;6.15;6.07;;;1.40;99.90;;;;;;4159525;28;20674;-47
2022/01/10 04:14:20;;;;;;;7.03;6.72;;;1.40;99.90;;;;;;4155414;28;20037;-48
2022/01/10 04:16:22;;;;;;;6.30;6.28;;;1.30;99.90;;;;;;4158933;28;20107;-47
2022/01/10 04:18:24;;;;;;;8.55;8.45;;;1.50;99.90;;;;;;4156947;28;20041;-46
2022/01/10 04:20:26;;;;;;;8.90;8.80;;;1.40;99.90;;;;;;4160459;28;20125;-45
2022/01/10 04:22:28;;;;;;;10.52;10.43;;;1.40;99.90;;;;;;4158852;28;20025;-45
2022/01/10 04:24:31;;;;;;;13.82;13.52;;;1.50;99.90;;;;;;4160111;28;20041;-46
2022/01/10 04:26:33;;;;;;;14.32;14.23;;;1.80;99.90;;;;;;4158314;28;20145;-45
2022/01/10 04:28:35;;;;;;;16.88;16.70;;;1.80;99.90;;;;;;4159761;28;20474;-46
2022/01/10 04:30:38;;;;;;;16.75;16.55;;;1.90;99.90;;;;;;4157338;28;20161;-46
2022/01/10 04:32:42;;;;;;;16.25;16.05;;;2.00;99.90;;;;;;4159264;28;20034;-45
2022/01/10 04:34:47;;;;;;;14.45;14.18;;;2.20;99.90;;;;;;4159983;28;20402;-47
2022/01/10 04:36:49;;;;;;;10.73;10.60;;;2.20;99.90;;;;;;4146816;28;20041;-46
2022/01/10 04:38:51;;;;;;;11.32;11.23;;;2.20;99.90;;;;;;4165074;28;20120;-46
2022/01/10 04:40:53;;;;;;;10.73;10.63;;;2.00;99.90;;;;;;4163368;28;20041;-47
2022/01/10 04:42:55;;;;;;;10.82;10.63;;;2.10;99.90;;;;;;4165533;28;20099;-46
2022/01/10 04:44:57;;;;;;;9.68;9.50;;;2.00;99.90;;;;;;4162181;28;20145;-47
2022/01/10 04:46:59;;;;;;;9.25;9.15;;;2.00;99.90;;;;;;4164534;28;20658;-45
2022/01/10 04:49:03;;;;;;;7.13;7.03;;;2.00;99.90;;;;;;4162996;28;20037;-46
2022/01/10 04:53:07;;;;;;;8.35;8.25;;;1.90;99.90;;;;;;4160792;28;20065;-45
2022/01/10 04:55:09;;;;;;;6.63;6.53;;;1.80;99.90;;;;;;4166006;28;20075;-45
2022/01/10 04:57:11;;;;;;;6.25;6.15;;;1.70;99.90;;;;;;4162936;28;20514;-46
2022/01/10 04:59:13;;;;;;;7.60;7.50;;;1.60;99.90;;;;;;4165443;28;20077;-45
2022/01/10 05:01:16;;;;;;;7.70;7.40;;;1.50;99.90;;;;;;4163796;28;20069;-44
2022/01/10 05:03:19;;;;;;;9.07;8.68;;;1.50;99.90;;;;;;4163382;28;20034;-46
2022/01/10 05:05:21;;;;;;;12.20;12.00;;;1.50;99.90;;;;;;4162836;28;20052;-44
2022/01/10 05:07:23;;;;;;;13.70;13.50;;;1.60;99.90;;;;;;4165414;28;20068;-44
2022/01/10 05:09:25;;;;;;;13.90;13.77;;;1.70;99.90;;;;;;4163165;28;20528;-45
2022/01/10 05:11:27;;;;;;;15.02;14.82;;;1.50;99.90;;;;;;4165645;28;20068;-45
2022/01/10 05:13:30;;;;;;;17.75;17.38;;;1.40;99.90;;;;;;4161678;28;20488;-46
2022/01/10 05:15:32;;;;;;;13.90;13.70;;;1.60;99.90;;;;;;4164857;28;20061;-45
2022/01/10 05:17:34;;;;;;;14.18;13.98;;;1.70;99.90;;;;;;4162452;28;20038;-45
2022/01/10 05:19:36;;;;;;;10.07;9.88;;;1.70;99.90;;;;;;4171847;28;20079;-45
2022/01/10 05:21:38;;;;;;;8.38;8.27;;;1.60;99.90;;;;;;4168135;28;20125;-47
2022/01/10 05:23:40;;;;;;;11.88;11.77;;;1.60;99.90;;;;;;4165634;28;20120;-46
2022/01/10 05:25:42;;;;;;;13.88;13.68;;;1.60;99.90;;;;;;4161116;28;20440;-47
2022/01/10 05:27:44;;;;;;;11.55;11.35;;;1.50;99.90;;;;;;4165359;28;20060;-45
2022/01/10 05:29:46;;;;;;;9.82;9.68;;;1.70;99.90;;;;;;4162634;28;20050;-45
2022/01/10 05:31:49;;;;;;;11.15;10.85;;;1.80;99.90;;;;;;4163153;28;20030;-45
2022/01/10 05:33:51;;;;;;;;;;;1.70;99.90;;;;;;4164108;28;20041;-47
2022/01/10 05:35:53;;;;;;;17.75;17.35;;;1.50;99.90;;;;;;4165012;28;20011;-45
2022/01/10 05:37:55;;;;;;;19.40;18.98;;;1.40;99.90;;;;;;4163099;28;20154;-46
2022/01/10 05:39:57;;;;;;;16.95;16.60;;;1.40;99.90;;;;;;4165614;28;20525;-45
2022/01/10 05:41:59;;;;;;;15.02;14.73;;;1.60;99.90;;;;;;4162342;28;21111;-45
2022/01/10 05:44:02;;;;;;;11.13;11.00;;;1.70;99.90;;;;;;4161328;28;20135;-46
2022/01/10 05:46:08;;;;;;;16.38;15.77;;;1.70;99.90;;;;;;4163628;28;20099;-45
2022/01/10 05:48:13;;;;;;;16.05;15.80;;;1.90;99.90;;;;;;4163199;28;20072;-45
2022/01/10 05:50:19;;;;;;;11.80;11.40;;;2.10;99.90;;;;;;4160592;28;20049;-45
2022/01/10 05:52:21;;;;;;;13.95;13.65;;;2.10;99.90;;;;;;4161027;28;20080;-45
2022/01/10 05:54:23;;;;;;;11.43;11.15;;;2.20;99.90;;;;;;4160349;28;20136;-46
2022/01/10 05:56:25;;;;;;;12.93;12.57;;;2.10;99.90;;;;;;4162942;28;20600;-45
2022/01/10 05:58:27;;;;;;;11.45;11.25;;;2.00;99.90;;;;;;4158908;28;20042;-45
2022/01/10 06:00:29;;;;;;;14.40;13.23;;;2.00;99.90;;;;;;4161221;28;20072;-45
2022/01/10 06:02:31;;;;;;;8.43;8.32;;;2.00;99.90;;;;;;4159023;28;20072;-45
2022/01/10 06:04:34;;;;;;;9.88;9.68;;;1.80;99.90;;;;;;4161769;28;20048;-45
2022/01/10 06:06:36;;;;;;;9.30;8.95;;;1.70;99.90;;;;;;4159504;28;20042;-46
2022/01/10 06:08:38;;;;;;;10.07;9.82;;;1.70;99.90;;;;;;4160019;28;20072;-46
2022/01/10 06:10:40;;;;;;;7.65;7.55;;;1.90;99.90;;;;;;4160265;28;20030;-47
2022/01/10 06:12:42;;;;;;;11.73;11.52;;;1.90;99.90;;;;;;4162145;28;20133;-46
2022/01/10 06:14:44;;;;;;;9.40;9.20;;;2.00;99.90;;;;;;4160876;28;20030;-45
2022/01/10 06:16:46;;;;;;;9.85;9.73;;;2.10;99.90;;;;;;4159436;28;20057;-46
2022/01/10 06:18:49;;;;;;;8.45;8.35;;;2.00;99.90;;;;;;4153990;28;20402;-46
2022/01/10 06:20:51;;;;;;;9.18;9.07;;;2.00;99.90;;;;;;4160296;28;20091;-45
2022/01/10 06:22:53;;;;;;;8.90;8.65;;;2.20;99.90;;;;;;4158176;28;20088;-53
2022/01/10 06:24:56;;;;;;;7.40;7.20;;;2.20;99.90;;;;;;4160335;28;20044;-53
2022/01/10 06:26:58;;;;;;;7.82;7.63;;;2.20;99.90;;;;;;4161389;28;20030;-51
2022/01/10 06:29:00;;;;;;;7.50;7.32;;;2.30;99.90;;;;;;4158811;28;20123;-53
2022/01/10 06:31:02;;;;;;;9.95;9.80;;;2.40;99.90;;;;;;4162171;28;20136;-52
2022/01/10 06:33:04;;;;;;;10.85;10.75;;;2.60;99.90;;;;;;4159758;28;20034;-53
2022/01/10 06:35:08;;;;;;;11.45;11.07;;;2.50;99.90;;;;;;4150028;28;20033;-50
2022/01/10 06:37:10;;;;;;;11.77;11.32;;;2.40;99.90;;;;;;4158686;28;20461;-53
2022/01/10 06:39:12;;;;;;;11.85;11.65;;;2.30;99.90;;;;;;4161494;28;20561;-50
2022/01/10 06:41:15;;;;;;;13.23;12.93;;;2.40;99.90;;;;;;4159683;28;20064;-51
2022/01/10 06:43:17;;;;;;;17.63;17.13;;;2.60;99.90;;;;;;4160768;28;20060;-53
2022/01/10 06:45:19;;;;;;;16.30;15.90;;;2.50;99.90;;;;;;4160037;28;20061;-52
2022/01/10 06:47:21;;;;;;;15.82;15.55;;;2.50;99.90;;;;;;4146289;28;20053;-53
2022/01/10 06:49:23;;;;;;;14.77;14.50;;;2.40;99.90;;;;;;4159867;28;20064;-53
2022/01/10 06:51:25;;;;;;;14.15;13.95;;;2.30;99.90;;;;;;4154786;28;20129;-50
2022/01/10 06:53:27;;;;;;;11.57;10.73;;;2.20;99.90;;;;;;4159258;28;20044;-53
2022/01/10 06:55:30;;;;;;;13.13;12.90;;;2.20;99.90;;;;;;4161231;28;20513;-51
2022/01/10 06:57:32;;;;;;;12.02;11.55;;;2.20;99.90;;;;;;4153708;28;20041;-51
2022/01/10 06:59:34;;;;;;;11.57;11.48;;;2.20;99.90;;;;;;4157723;28;20068;-52
2022/01/10 07:01:36;;;;;;;12.82;12.52;;;2.10;99.90;;;;;;4157261;28;20042;-53
2022/01/10 07:03:40;;;;;;;14.00;13.80;;;2.00;99.90;;;;;;4162366;28;20124;-52
2022/01/10 07:05:42;;;;;;;13.32;13.05;;;2.00;99.90;;;;;;4156772;28;20125;-52
2022/01/10 07:07:45;;;;;;;12.07;11.52;;;2.00;99.90;;;;;;4161938;28;20149;-52
2022/01/10 07:09:47;;;;;;;10.98;10.63;;;2.00;99.90;;;;;;4157861;28;20049;-51
2022/01/10 07:11:49;;;;;;;9.98;9.82;;;2.10;99.90;;;;;;4161669;28;20128;-50
2022/01/10 07:13:52;;;;;;;9.35;9.07;;;2.30;99.90;;;;;;4157233;28;20029;-51
2022/01/10 07:15:54;;;;;;;9.50;9.30;;;2.50;99.90;;;;;;4161824;28;20068;-51
2022/01/10 07:17:56;;;;;;;9.73;9.63;;;2.50;99.90;;;;;;4157804;28;20033;-51
2022/01/10 07:19:58;;;;;;;12.07;11.77;;;2.40;99.90;;;;;;4162094;28;20037;-53
2022/01/10 07:22:00;;;;;;;9.70;9.60;;;2.30;99.90;;;;;;4157924;28;20068;-48
2022/01/10 07:24:03;;;;;;;10.60;10.50;;;2.40;99.90;;;;;;4156996;28;20516;-52
2022/01/10 07:26:05;;;;;;;9.43;9.32;;;2.50;99.90;;;;;;4153715;28;20041;-50
2022/01/10 07:28:07;;;;;;;10.02;9.73;;;2.40;99.90;;;;;;4160631;28;20121;-50
2022/01/10 07:30:09;;;;;;;7.72;7.63;;;2.50;99.90;;;;;;4159170;28;20080;-50
2022/01/10 07:32:11;;;;;;;8.85;8.75;;;2.50;99.90;;;;;;4156647;28;20121;-51
2022/01/10 07:34:15;;;;;;;13.65;12.73;;;2.40;99.90;;;;;;4157137;28;20533;-52
2022/01/10 07:36:17;;;;;;;14.52;14.25;;;2.30;99.90;;;;;;4159050;28;20071;-52
2022/01/10 07:38:19;;;;;;;14.75;14.55;;;2.30;99.90;;;;;;4159536;28;20076;-51
2022/01/10 07:40:22;;;;;;;10.15;9.85;;;2.70;99.90;;;;;;4160028;28;20657;-51
2022/01/10 07:42:24;;;;;;;15.13;15.00;;;2.80;99.90;;;;;;4158967;28;20064;-53
2022/01/10 07:44:26;;;;;;;13.25;12.93;;;2.70;99.90;;;;;;4158459;28;20493;-52
2022/01/10 07:46:28;;;;;;;35.55;25.77;;;2.70;99.90;;;;;;4159422;28;20322;-51
2022/01/10 07:48:33;;;;;;;22.73;20.48;;;2.70;99.90;;;;;;4159791;28;20041;-52
2022/01/10 07:50:35;;;;;;;11.20;11.00;;;2.60;99.90;;;;;;4148901;28;20398;-53
2022/01/10 07:52:37;;;;;;;11.63;11.27;;;2.60;99.90;;;;;;4158698;28;20120;-53
2022/01/10 07:54:39;;;;;;;8.02;7.85;;;2.60;99.90;;;;;;4160297;28;20121;-52
2022/01/10 07:56:42;;;;;;;8.70;8.07;;;2.60;99.90;;;;;;4157196;28;20041;-53
2022/01/10 07:58:46;;;;;;;6.75;6.65;;;2.60;99.90;;;;;;4160426;28;20528;-50
2022/01/10 08:00:48;;;;;;;7.55;7.45;;;2.60;99.90;;;;;;4156993;28;20179;-52
2022/01/10 08:02:50;;;;;;;9.95;9.80;;;2.60;99.90;;;;;;4160829;28;20051;-52
2022/01/10 08:04:53;;;;;;;11.73;11.55;;;2.60;99.90;;;;;;4157272;28;20041;-51
2022/01/10 08:06:55;;;;;;;9.60;9.05;;;2.60;99.90;;;;;;4144672;28;20069;-51
2022/01/10 08:08:57;;;;;;;13.60;13.00;;;2.60;99.90;;;;;;4157936;28;20591;-51
2022/01/10 08:10:59;;;;;;;11.60;11.05;;;2.50;99.90;;;;;;4159641;28;20142;-52
2022/01/10 08:13:01;;;;;;;9.45;9.20;;;2.50;99.90;;;;;;4157777;28;21131;-52
2022/01/10 08:15:04;;;;;;;8.82;8.50;;;2.50;99.90;;;;;;4160227;28;20050;-51
2022/01/10 08:17:06;;;;;;;8.75;8.40;;;2.50;99.90;;;;;;4155633;28;20044;-51
2022/01/10 08:19:08;;;;;;;7.20;6.90;;;2.50;99.90;;;;;;4158505;28;20045;-51
2022/01/10 08:21:10;;;;;;;6.68;6.47;;;2.60;99.90;;;;;;4153753;28;20068;-49
2022/01/10 08:23:15;;;;;;;6.63;6.43;;;2.80;99.90;;;;;;4161534;28;20049;-49
2022/01/10 08:25:18;;;;;;;8.30;7.88;;;2.90;99.90;;;;;;4156834;28;20077;-51
2022/01/10 08:27:20;;;;;;;;;;;2.80;99.90;;;;;;4160804;28;20605;-51
2022/01/10 08:29:23;;;;;;;8.10;7.93;;;2.90;99.90;;;;;;4158170;28;19932;-49
2022/01/10 08:31:25;;;;;;;5.65;5.55;;;2.90;99.90;;;;;;4159875;28;20124;-47
2022/01/10 08:33:27;;;;;;;5.47;5.32;;;3.00;99.90;;;;;;4156957;28;20680;-49
2022/01/10 08:35:29;;;;;;;7.60;7.25;;;3.10;99.90;;;;;;4161030;28;20049;-48
2022/01/10 08:37:32;;;;;;;10.23;9.73;;;3.10;99.90;;;;;;4158178;28;20482;-52
2022/01/10 08:39:34;;;;;;;10.75;10.10;;;3.10;99.90;;;;;;4158768;28;20080;-52
2022/01/10 08:41:36;;;;;;;7.90;7.60;;;3.00;99.90;;;;;;4157141;28;20437;-52
2022/01/10 08:43:38;;;;;;;6.82;6.38;;;3.10;99.90;;;;;;4159728;28;20046;-53
2022/01/10 08:45:41;;;;;;;7.03;6.93;;;3.10;99.90;;;;;;4154061;28;20042;-51
2022/01/10 08:47:43;;;;;;;5.32;5.22;;;3.10;99.90;;;;;;4160829;28;20057;-53
2022/01/10 08:49:45;;;;;;;6.82;6.50;;;3.10;99.90;;;;;;4155943;28;20029;-53
2022/01/10 08:51:54;;;;;;;6.20;6.03;;;3.00;99.90;;;;;;4158518;28;20045;-49
2022/01/10 08:53:56;;;;;;;8.60;8.30;;;3.20;99.90;;;;;;4149263;28;20043;-53
2022/01/10 08:55:58;;;;;;;;;;;3.20;99.90;;;;;;4158767;28;21002;-52
2022/01/10 08:58:01;;;;;;;9.85;9.43;;;3.20;99.90;;;;;;4158093;28;19951;-51
2022/01/10 09:00:07;;;;;;;7.78;7.55;;;3.20;99.90;;;;;;4159510;28;20835;-52
2022/01/10 09:02:12;;;;;;;7.00;6.80;;;3.10;99.90;;;;;;4158595;28;20442;-53
2022/01/10 09:04:16;;;;;;;7.15;6.85;;;3.10;99.90;;;;;;4160243;28;20099;-52
2022/01/10 09:06:18;;;;;;;12.60;11.32;;;3.30;99.90;;;;;;4157910;28;20060;-51
2022/01/10 09:08:21;;;;;;;6.40;6.20;;;3.20;99.90;;;;;;4159219;28;20069;-52
2022/01/10 09:10:23;;;;;;;7.15;6.70;;;3.10;99.90;;;;;;4159191;28;20464;-52
2022/01/10 09:12:25;;;;;;;11.70;10.57;;;3.20;99.90;;;;;;4159899;28;20690;-51
2022/01/10 09:14:27;;;;;;;6.28;5.82;;;3.10;99.90;;;;;;4158006;28;20535;-52
2022/01/10 09:16:29;;;;;;;7.60;7.50;;;3.20;99.90;;;;;;4159349;28;20037;-52
2022/01/10 09:18:31;;;;;;;8.13;7.82;;;3.20;99.90;;;;;;4155651;28;20121;-53
2022/01/10 09:20:33;;;;;;;8.60;8.27;;;3.20;99.90;;;;;;4160164;28;20124;-53
2022/01/10 09:22:35;;;;;;;7.70;7.30;;;3.20;99.90;;;;;;4156320;28;20041;-52
2022/01/10 09:24:37;;;;;;;9.43;8.88;;;3.20;99.90;;;;;;4162234;28;20175;-52
2022/01/10 09:26:40;;;;;;;7.20;7.00;;;3.20;99.90;;;;;;4160370;28;20662;-52
2022/01/10 09:28:43;;;;;;;7.03;6.93;;;3.30;99.90;;;;;;4163036;28;20067;-53
2022/01/10 09:30:46;;;;;;;8.43;8.15;;;3.30;99.90;;;;;;4161222;28;20048;-52
2022/01/10 09:32:49;;;;;;;7.97;7.57;;;3.50;99.90;;;;;;4162032;28;20033;-52
2022/01/10 09:34:51;;;;;;;6.30;6.20;;;3.50;99.90;;;;;;4161129;28;20505;-53
2022/01/10 09:36:53;;;;;;;7.78;7.38;;;3.40;99.90;;;;;;4164804;28;20034;-54
2022/01/10 09:38:57;;;;;;;7.50;7.20;;;3.50;99.90;;;;;;4176556;28;20048;-54
2022/01/10 09:41:00;;;;;;;6.10;5.90;;;3.40;99.90;;;;;;4161748;28;20112;-52
2022/01/10 09:43:03;;;;;;;6.53;6.38;;;3.50;99.90;;;;;;4160886;28;20065;-54
2022/01/10 09:45:07;;;;;;;6.13;5.93;;;3.60;99.90;;;;;;4162015;28;20065;-54
2022/01/10 09:47:09;;;;;;;6.22;5.85;;;3.60;99.90;;;;;;4162523;28;20076;-54
2022/01/10 09:49:11;;;;;;;5.68;5.47;;;3.50;99.90;;;;;;4161307;28;20048;-53
2022/01/10 09:51:14;;;;;;;6.57;6.13;;;3.50;99.90;;;;;;4162598;28;20112;-53
2022/01/10 09:53:18;;;;;;;5.85;5.75;;;3.40;99.90;;;;;;4161028;28;20072;-54
2022/01/10 09:55:20;;;;;;;6.45;6.35;;;3.40;99.90;;;;;;4162978;28;20065;-54
2022/01/10 09:57:23;;;;;;;7.05;6.95;;;3.50;99.90;;;;;;4159345;28;20061;-53
2022/01/10 09:59:25;;;;;;;6.70;6.60;;;3.60;99.90;;;;;;4144787;28;20129;-52
2022/01/10 10:01:30;;;;;;;7.15;6.80;;;3.50;99.90;;;;;;4159445;28;20069;-54
2022/01/10 10:03:33;;;;;;;7.72;7.40;;;3.50;99.90;;;;;;4162448;28;20454;-54
2022/01/10 10:05:35;;;;;;;7.32;7.13;;;3.60;99.90;;;;;;4158420;28;20045;-55
2022/01/10 10:07:38;;;;;;;6.57;6.38;;;3.60;99.90;;;;;;4162631;28;20513;-54
2022/01/10 10:09:40;;;;;;;6.18;6.00;;;3.70;99.90;;;;;;4159043;28;20379;-55
2022/01/10 10:11:49;;;;;;;7.18;7.07;;;3.70;99.90;;;;;;4162409;28;20746;-55
2022/01/10 10:13:54;;;;;;;7.85;7.55;;;3.70;99.90;;;;;;4157846;28;20152;-55
2022/01/10 10:15:59;;;;;;;7.28;7.07;;;3.70;99.90;;;;;;4161840;28;20064;-55
2022/01/10 10:18:03;;;;;;;7.78;7.47;;;3.70;99.90;;;;;;4158680;28;20068;-54
2022/01/10 10:20:14;;;;;;;6.97;6.70;;;3.70;99.90;;;;;;4161986;28;20172;-55
2022/01/10 10:22:39;;;;;;;8.38;8.07;;;3.70;99.90;;;;;;4160679;28;20132;-55
2022/01/10 10:24:42;;;;;;;8.60;8.40;;;3.70;99.90;;;;;;4160643;28;20069;-56
2022/01/10 10:26:44;;;;;;;8.75;7.82;;;3.70;99.90;;;;;;4160428;28;20046;-55
2022/01/10 10:28:49;;;;;;;8.70;8.20;;;3.70;99.90;;;;;;4161846;28;20132;-55
2022/01/10 10:30:57;;;;;;;8.73;8.48;;;3.70;99.90;;;;;;4159610;28;20049;-55
2022/01/10 10:33:22;;;;;;;7.68;7.43;;;3.60;99.90;;;;;;4160836;28;20060;-55
2022/01/10 10:35:24;;;;;;;8.48;8.07;;;3.60;99.90;;;;;;4158213;28;20037;-55
2022/01/10 10:37:27;;;;;;;7.72;7.28;;;3.60;99.90;;;;;;4158468;28;20029;-55
2022/01/10 10:39:31;;;;;;;8.82;8.43;;;3.50;99.90;;;;;;4161995;28;20149;-55
2022/01/10 10:41:38;;;;;;;9.15;8.75;;;3.50;99.90;;;;;;4160181;28;20041;-55
2022/01/10 10:43:42;;;;;;;9.02;8.80;;;3.60;99.90;;;;;;4160307;28;20037;-55
2022/01/10 10:45:48;;;;;;;8.30;8.00;;;3.60;99.90;;;;;;4159267;28;20087;-55
2022/01/10 10:47:50;;;;;;;11.63;10.88;;;3.60;99.90;;;;;;4160386;28;20045;-54
2022/01/10 10:49:59;;;;;;;10.43;10.15;;;3.60;99.90;;;;;;4161600;28;20107;-54
2022/01/10 10:52:10;;;;;;;9.90;8.98;;;3.70;99.90;;;;;;4160879;28;20087;-54
2022/01/10 10:54:13;;;;;;;10.50;9.98;;;3.60;99.90;;;;;;4158339;28;20041;-54
2022/01/10 10:56:15;;;;;;;;;;;3.70;99.90;;;;;;4160256;28;20033;-54
2022/01/10 10:58:17;;;;;;;8.45;8.20;;;3.70;99.90;;;;;;4160931;28;19936;-53
2022/01/10 11:00:19;;;;;;;8.43;8.07;;;3.60;99.90;;;;;;4158645;28;20033;-54
2022/01/10 11:02:21;;;;;;;9.32;8.80;;;3.60;99.90;;;;;;4160429;28;20052;-54